Time;durP1;ratioP1;P1;durP2;ratioP2;P2;SDS_P1;SDS_P2;PMS_P1;PMS_P2;Temp;Humidity;BMP_temperature;BMP_pressure;BME280_temperature;BME280_humidity;BME280_pressure;Samples;Min_cycle;Max_cycle;Signal;HPM_P1;HPM_P2
2022/01/23 00:01:44;;;;;;;14.97;9.20;;;;;;;2.49;100.00;100392.53;5031500;28;20216;-62
2022/01/23 00:04:12;;;;;;;12.93;8.30;;;;;;;2.49;100.00;100408.00;5031808;28;20267;-63
2022/01/23 00:06:39;;;;;;;13.93;8.00;;;;;;;2.48;100.00;100410.66;5031896;28;20631;-62
2022/01/23 00:09:06;;;;;;;15.43;8.90;;;;;;;2.50;100.00;100403.72;5031704;28;20195;-62
2022/01/23 00:11:38;;;;;;;15.37;8.53;;;;;;;2.50;100.00;100407.09;5030737;28;20208;-62
2022/01/23 00:19:35;;;;;;;15.57;8.70;;;;;;;2.53;100.00;100402.75;5011713;28;20612;-62
2022/01/23 00:22:02;;;;;;;15.00;8.50;;;;;;;2.48;100.00;100396.00;5011502;28;20215;-61
2022/01/23 00:32:42;;;;;;;18.10;9.77;;;;;;;2.46;100.00;100382.34;4996533;28;20582;-62
2022/01/23 00:35:10;;;;;;;13.97;8.20;;;;;;;2.45;100.00;100383.22;5025713;28;20188;-62
2022/01/23 00:37:37;;;;;;;16.27;9.50;;;;;;;2.42;100.00;100378.19;5022203;28;20747;-62
2022/01/23 00:40:05;;;;;;;16.20;8.80;;;;;;;2.47;100.00;100380.63;5010890;28;20581;-61
2022/01/23 00:42:33;;;;;;;16.80;8.30;;;;;;;2.45;100.00;100370.34;5011273;28;20204;-62
2022/01/23 00:45:12;;;;;;;14.30;7.87;;;;;;;2.48;100.00;100371.97;5011036;28;20268;-62
2022/01/23 00:47:39;;;;;;;14.33;8.50;;;;;;;2.47;100.00;100371.13;5011548;28;20212;-62
2022/01/23 00:50:06;;;;;;;14.40;8.00;;;;;;;2.48;100.00;100379.72;5011231;28;20204;-62
2022/01/23 00:52:34;;;;;;;12.50;8.30;;;;;;;2.48;100.00;100374.56;5011069;28;20215;-62
2022/01/23 00:55:04;;;;;;;15.23;8.17;;;;;;;2.43;100.00;100379.88;5010876;28;20202;-63
2022/01/23 00:57:31;;;;;;;12.23;7.80;;;;;;;2.40;100.00;100382.56;5004740;28;20199;-63
2022/01/23 00:59:58;;;;;;;15.70;9.17;;;;;;;2.41;100.00;100384.25;5009974;28;20694;-63
2022/01/23 01:02:24;;;;;;;15.53;8.97;;;;;;;2.47;100.00;100388.34;5030648;28;20231;-64
2022/01/23 01:04:51;;;;;;;14.77;9.60;;;;;;;2.47;100.00;100384.00;5030129;28;20203;-63
2022/01/23 01:07:18;;;;;;;15.40;9.10;;;;;;;2.45;100.00;100377.25;5012480;28;20191;-64
2022/01/23 01:09:50;;;;;;;15.60;9.00;;;;;;;2.46;100.00;100389.25;5013003;28;20215;-63
2022/01/23 01:12:20;;;;;;;16.77;10.33;;;;;;;2.47;100.00;100384.00;5012919;28;21159;-63
2022/01/23 01:17:40;;;;;;;13.97;8.30;;;;;;;2.40;100.00;100379.16;5004418;28;20238;-63
2022/01/23 01:31:13;;;;;;;16.57;10.37;;;;;;;2.43;100.00;100379.03;5011994;28;20223;-62
2022/01/23 01:33:47;;;;;;;18.07;10.37;;;;;;;2.46;100.00;100372.03;5012095;28;20219;-62
2022/01/23 01:36:26;;;;;;;17.10;9.60;;;;;;;2.47;100.00;100376.28;5012683;28;20613;-62
2022/01/23 01:38:58;;;;;;;16.57;10.00;;;;;;;2.45;100.00;100380.66;5012678;28;20192;-63
2022/01/23 01:41:27;;;;;;;14.67;8.93;;;;;;;2.42;100.00;100380.75;5012459;28;20463;-62
2022/01/23 01:43:56;;;;;;;13.93;8.77;;;;;;;2.46;100.00;100384.91;5012597;28;20219;-62
2022/01/23 01:46:44;;;;;;;17.00;8.47;;;;;;;2.48;100.00;100372.81;5016017;28;20563;-62
2022/01/23 01:49:12;;;;;;;16.03;9.40;;;;;;;2.47;100.00;100371.13;5012799;28;20195;-62
2022/01/23 01:51:39;;;;;;;14.87;9.20;;;;;;;2.54;100.00;100370.91;5011985;28;20282;-62
2022/01/23 01:54:15;;;;;;;16.10;9.07;;;;;;;2.48;100.00;100362.50;5012176;28;20240;-62
2022/01/23 01:56:51;;;;;;;18.27;9.23;;;;;;;2.48;100.00;100359.94;5012355;28;20207;-62
2022/01/23 01:59:45;;;;;;;17.17;8.90;;;;;;;2.47;100.00;100355.66;5012147;28;20655;-62
2022/01/23 02:03:06;;;;;;;16.30;8.43;;;;;;;2.44;100.00;100358.34;5024814;28;20279;-62
2022/01/23 02:08:34;;;;;;;12.93;8.33;;;;;;;2.44;100.00;100366.09;5029998;28;20414;-61
2022/01/23 02:11:08;;;;;;;12.97;8.37;;;;;;;2.43;100.00;100366.16;5029555;28;20197;-62
2022/01/23 02:13:41;;;;;;;15.03;8.63;;;;;;;2.42;100.00;100360.16;5012137;28;20208;-62
2022/01/23 02:16:38;;;;;;;15.93;9.50;;;;;;;2.43;100.00;100366.16;5006481;28;20235;-63
2022/01/23 02:25:17;;;;;;;13.67;8.00;;;;;;;2.38;100.00;100357.75;5009318;28;20215;-62
2022/01/23 02:52:54;;;;;;;15.00;8.97;;;;;;;2.32;100.00;100333.88;4996043;28;20204;-62
2022/01/23 02:55:25;;;;;;;15.13;9.17;;;;;;;2.33;100.00;100329.56;4995541;28;20193;-62
2022/01/23 02:58:00;;;;;;;17.27;8.37;;;;;;;2.35;100.00;100335.50;5006392;28;20284;-62
2022/01/23 03:00:35;;;;;;;17.90;9.20;;;;;;;2.34;100.00;100328.66;5010971;28;20707;-62
2022/01/23 03:03:08;;;;;;;14.70;8.73;;;;;;;2.37;100.00;100328.53;5029723;28;20203;-62
2022/01/23 03:06:17;;;;;;;15.20;8.23;;;;;;;2.38;100.00;100329.41;5032280;28;20549;-62
2022/01/23 03:09:07;;;;;;;13.70;8.30;;;;;;;2.41;100.00;100326.72;5015559;28;20214;-62
2022/01/23 03:11:58;;;;;;;16.43;8.77;;;;;;;2.41;100.00;100332.69;5014829;28;20215;-62
2022/01/23 03:14:38;;;;;;;15.07;8.63;;;;;;;2.38;100.00;100326.81;5014566;28;20311;-62
2022/01/23 03:25:42;;;;;;;13.60;8.23;;;;;;;2.36;100.00;100325.13;5032072;28;20218;-63
2022/01/23 03:28:20;;;;;;;15.03;8.83;;;;;;;2.31;100.00;100331.34;5014865;28;20192;-63
2022/01/23 03:31:05;;;;;;;16.07;8.77;;;;;;;2.35;100.00;100327.75;5032414;28;20579;-63
2022/01/23 03:33:32;;;;;;;18.83;8.63;;;;;;;2.33;100.00;100340.72;5032441;28;20215;-63
2022/01/23 03:36:00;;;;;;;13.00;7.90;;;;;;;2.34;100.00;100346.69;5014712;28;20275;-63
2022/01/23 03:38:26;;;;;;;13.20;8.23;;;;;;;2.31;100.00;100339.94;5015182;28;20192;-63
2022/01/23 03:40:54;;;;;;;14.03;8.43;;;;;;;2.34;100.00;100338.97;5014453;28;20354;-63
2022/01/23 03:43:27;;;;;;;14.60;9.30;;;;;;;2.33;100.00;100338.13;5014369;28;20695;-63
2022/01/23 03:46:22;;;;;;;13.33;7.87;;;;;;;2.30;100.00;100348.56;5014257;28;20192;-63
2022/01/23 03:51:31;;;;;;;14.03;8.40;;;;;;;2.32;100.00;100340.75;5014185;28;20302;-63
2022/01/23 03:53:58;;;;;;;14.57;8.63;;;;;;;2.30;100.00;100350.28;5013930;28;20246;-63
2022/01/23 03:56:26;;;;;;;14.23;8.80;;;;;;;2.32;100.00;100351.06;5014574;28;20191;-62
2022/01/23 03:58:55;;;;;;;15.37;8.40;;;;;;;2.30;100.00;100358.88;5030841;28;20283;-63
2022/01/23 04:01:22;;;;;;;16.90;9.57;;;;;;;2.32;100.00;100356.22;5030504;28;20754;-63
2022/01/23 04:03:55;;;;;;;14.37;8.50;;;;;;;2.35;100.00;100356.09;5030583;28;20191;-63
2022/01/23 04:06:22;;;;;;;11.70;7.70;;;;;;;2.32;100.00;100356.22;5030069;28;20202;-63
2022/01/23 04:08:49;;;;;;;14.87;8.67;;;;;;;2.32;100.00;100358.78;5030935;28;20196;-63
2022/01/23 04:11:16;;;;;;;12.53;7.77;;;;;;;2.31;100.00;100359.69;5030420;28;20207;-62
2022/01/23 04:13:48;;;;;;;14.80;9.27;;;;;;;2.30;100.00;100356.28;5029831;28;20242;-63
2022/01/23 04:16:40;;;;;;;14.33;8.47;;;;;;;2.33;100.00;100350.16;5030788;28;20200;-63
2022/01/23 04:19:32;;;;;;;16.37;8.90;;;;;;;2.35;100.00;100353.53;5012048;28;20200;-63
2022/01/23 04:33:24;;;;;;;16.30;8.07;;;;;;;2.36;100.00;100348.34;5013998;28;20218;-62
2022/01/23 05:00:48;;;;;;;14.20;8.40;;;;;;;2.30;100.00;100333.09;5028956;28;20227;-62
2022/01/23 05:06:23;;;;;;;14.65;10.45;;;;;;;2.36;100.00;100334.59;5010432;28;20469;-62
2022/01/23 05:09:01;;;;;;;18.23;9.07;;;;;;;2.37;100.00;100341.44;5020765;28;20207;-62
2022/01/23 05:11:49;;;;;;;13.90;8.40;;;;;;;2.37;100.00;100338.84;5020765;28;20386;-61
2022/01/23 05:14:28;;;;;;;15.07;8.77;;;;;;;2.34;100.00;100333.81;5020487;28;20225;-62
2022/01/23 05:16:55;;;;;;;14.37;8.80;;;;;;;2.35;100.00;100338.91;5036751;28;20219;-61
2022/01/23 05:19:22;;;;;;;14.37;8.53;;;;;;;2.37;100.00;100346.59;5017894;28;20199;-61
2022/01/23 05:24:37;;;;;;;17.17;8.70;;;;;;;2.39;100.00;100357.69;5007613;28;20199;-62
2022/01/23 05:27:07;;;;;;;15.40;9.17;;;;;;;2.41;100.00;100353.31;5039993;28;20196;-62
2022/01/23 05:29:34;;;;;;;13.17;8.33;;;;;;;2.41;100.00;100347.31;5035957;28;20191;-62
2022/01/23 05:32:01;;;;;;;14.93;8.33;;;;;;;2.38;100.00;100342.28;5020607;28;20203;-62
2022/01/23 05:34:28;;;;;;;18.07;9.63;;;;;;;2.38;100.00;100343.09;5021628;28;20306;-62
2022/01/23 05:37:05;;;;;;;15.47;9.37;;;;;;;2.41;100.00;100348.16;5022444;28;20673;-62
2022/01/23 05:39:34;;;;;;;15.87;8.90;;;;;;;2.43;100.00;100341.22;5020760;28;20195;-62
2022/01/23 05:42:07;;;;;;;13.97;8.50;;;;;;;2.42;100.00;100354.16;5020014;28;20477;-61
2022/01/23 05:44:36;;;;;;;12.60;8.10;;;;;;;2.35;100.00;100346.66;5018002;28;20192;-62
2022/01/23 05:47:04;;;;;;;14.50;8.40;;;;;;;2.35;100.00;100354.38;5020508;28;20187;-62
2022/01/23 05:49:44;;;;;;;13.07;8.30;;;;;;;2.39;100.00;100362.00;5020322;28;20202;-62
2022/01/23 05:52:31;;;;;;;14.47;8.57;;;;;;;2.32;100.00;100356.22;5039972;28;20206;-62
2022/01/23 05:55:06;;;;;;;17.40;7.97;;;;;;;2.45;100.00;100359.22;5021403;28;20246;-62
2022/01/23 05:57:56;;;;;;;15.60;8.80;;;;;;;2.37;100.00;100369.78;5017767;28;20215;-62
2022/01/23 06:00:40;;;;;;;17.37;10.40;;;;;;;2.40;100.00;100366.25;5019482;28;20703;-62
2022/01/23 06:03:14;;;;;;;17.67;9.90;;;;;;;2.40;100.00;100364.50;5018018;28;20701;-62
2022/01/23 06:05:46;;;;;;;17.77;9.43;;;;;;;2.42;100.00;100364.47;5019365;28;20652;-62
2022/01/23 06:08:23;;;;;;;14.10;8.30;;;;;;;2.43;100.00;100366.16;5021084;28;20384;-62
2022/01/23 06:10:56;;;;;;;19.77;9.80;;;;;;;2.40;100.00;100369.66;5025526;28;20229;-62
2022/01/23 06:13:33;;;;;;;16.23;9.07;;;;;;;2.41;100.00;100361.03;5021250;28;20587;-62
2022/01/23 06:16:01;;;;;;;20.00;9.90;;;;;;;2.42;100.00;100367.88;5024550;28;20651;-62
2022/01/23 06:18:28;;;;;;;17.33;9.43;;;;;;;2.42;100.00;100365.31;5018322;28;20250;-62
2022/01/23 06:21:18;;;;;;;17.00;9.23;;;;;;;2.41;100.00;100365.38;5030061;28;20238;-62
2022/01/23 06:24:24;;;;;;;16.23;9.43;;;;;;;2.38;100.00;100362.91;5018955;28;20201;-62
2022/01/23 06:27:11;;;;;;;18.37;10.23;;;;;;;2.37;100.00;100359.47;5038070;28;20600;-62
2022/01/23 06:29:44;;;;;;;14.40;7.93;;;;;;;2.41;100.00;100368.78;5024521;28;20256;-62
2022/01/23 06:32:11;;;;;;;17.10;8.67;;;;;;;2.41;100.00;100363.63;5043134;28;20544;-61
2022/01/23 06:34:37;;;;;;;15.53;8.90;;;;;;;2.37;100.00;100382.66;5041852;28;20277;-61
2022/01/23 06:37:05;;;;;;;14.83;8.83;;;;;;;2.40;100.00;100384.31;5023604;28;20218;-62
2022/01/23 06:39:33;;;;;;;15.50;8.17;;;;;;;2.37;100.00;100377.50;5020952;28;20184;-62
2022/01/23 06:42:02;;;;;;;14.10;8.20;;;;;;;2.38;100.00;100388.69;5023532;28;20187;-62
2022/01/23 06:44:35;;;;;;;13.53;8.27;;;;;;;2.38;100.00;100391.25;5038944;28;20196;-62
2022/01/23 06:47:02;;;;;;;15.97;9.10;;;;;;;2.38;100.00;100388.69;5023780;28;20532;-61
2022/01/23 06:49:29;;;;;;;14.70;8.30;;;;;;;2.35;100.00;100394.75;5042782;28;20203;-61
2022/01/23 06:51:56;;;;;;;19.23;9.87;;;;;;;2.36;100.00;100391.28;5021860;28;20531;-61
2022/01/23 06:54:23;;;;;;;18.43;9.07;;;;;;;2.38;100.00;100398.97;5016734;28;20596;-62
2022/01/23 06:56:53;;;;;;;16.57;9.43;;;;;;;2.32;100.00;100390.56;5019449;28;20194;-62
2022/01/23 06:59:21;;;;;;;15.13;9.53;;;;;;;2.35;100.00;100389.59;5021624;28;20188;-64
2022/01/23 07:01:53;;;;;;;15.50;9.00;;;;;;;2.31;100.00;100388.03;5016434;28;20274;-62
2022/01/23 07:04:25;;;;;;;15.30;10.03;;;;;;;2.33;100.00;100392.25;5021983;28;20184;-62
2022/01/23 07:07:10;;;;;;;15.97;9.53;;;;;;;2.35;100.00;100400.78;5040420;28;20690;-62
2022/01/23 07:10:04;;;;;;;15.97;8.93;;;;;;;2.36;100.00;100404.19;5038737;28;20216;-62
2022/01/23 07:12:38;;;;;;;14.23;9.03;;;;;;;2.36;100.00;100410.19;5023734;28;20219;-62
2022/01/23 07:15:16;;;;;;;18.80;10.53;;;;;;;2.37;100.00;100413.59;5020951;28;20695;-62
2022/01/23 07:17:52;;;;;;;15.60;8.57;;;;;;;2.36;100.00;100409.34;5022509;28;20238;-62
2022/01/23 07:20:39;;;;;;;14.53;8.53;;;;;;;2.39;100.00;100418.72;5033834;28;20599;-62
2022/01/23 07:23:13;;;;;;;12.63;7.33;;;;;;;2.42;100.00;100416.03;5009253;28;20198;-62
2022/01/23 07:25:42;;;;;;;12.63;7.57;;;;;;;2.42;100.00;100414.28;5023740;28;20227;-62
2022/01/23 07:28:14;;;;;;;14.50;8.37;;;;;;;2.43;100.00;100415.94;5022492;28;20686;-62
2022/01/23 07:30:48;;;;;;;14.33;8.87;;;;;;;2.44;100.00;100425.38;5022716;28;20231;-62
2022/01/23 07:33:16;;;;;;;16.30;8.93;;;;;;;2.47;100.00;100422.69;5023824;28;20257;-62
2022/01/23 07:35:43;;;;;;;16.27;9.37;;;;;;;2.49;100.00;100430.38;5023479;28;20208;-62
2022/01/23 07:38:11;;;;;;;16.70;9.43;;;;;;;2.49;100.00;100427.81;5022340;28;20219;-62
2022/01/23 07:40:44;;;;;;;15.37;8.30;;;;;;;2.47;100.00;100427.00;5040163;28;20215;-62
2022/01/23 07:43:19;;;;;;;14.63;8.90;;;;;;;2.51;100.00;100431.16;5023415;28;20196;-62
2022/01/23 07:46:25;;;;;;;14.60;8.07;;;;;;;2.53;100.00;100434.53;5015414;28;20539;-63
2022/01/23 07:49:15;;;;;;;16.17;8.93;;;;;;;2.50;100.00;100437.22;5022571;28;20192;-62
2022/01/23 07:52:01;;;;;;;18.67;8.70;;;;;;;2.52;100.00;100440.59;5021205;28;20202;-62
2022/01/23 07:54:47;;;;;;;17.47;8.93;;;;;;;2.50;100.00;100450.94;5040650;28;20273;-63
2022/01/23 07:57:33;;;;;;;15.60;8.53;;;;;;;2.56;100.00;100443.88;5021689;28;20199;-63
2022/01/23 08:00:22;;;;;;;15.37;9.53;;;;;;;2.56;100.00;100441.31;5007024;28;20311;-62
2022/01/23 08:02:49;;;;;;;17.13;10.10;;;;;;;2.57;100.00;100436.09;5039597;28;20200;-62
2022/01/23 08:05:50;;;;;;;23.97;13.90;;;;;;;2.63;100.00;100440.19;5040701;28;20217;-62
2022/01/23 08:08:44;;;;;;;23.67;13.10;;;;;;;2.68;100.00;100440.00;5037082;28;20196;-61
2022/01/23 08:11:17;;;;;;;17.87;11.30;;;;;;;2.71;100.00;100445.91;5038091;28;20743;-61
2022/01/23 08:13:44;;;;;;;15.13;9.27;;;;;;;2.73;100.00;100449.28;5039588;28;20198;-61
2022/01/23 08:16:12;;;;;;;15.10;8.97;;;;;;;2.78;100.00;100449.94;5041418;28;20691;-62
2022/01/23 08:18:40;;;;;;;13.10;7.83;;;;;;;2.83;100.00;100454.09;5040429;28;20270;-62
2022/01/23 08:21:07;;;;;;;15.17;8.07;;;;;;;2.80;100.00;100455.91;5039119;28;20294;-61
2022/01/23 08:23:38;;;;;;;15.10;7.97;;;;;;;2.84;100.00;100466.09;5035947;28;20233;-61
2022/01/23 08:26:04;;;;;;;14.90;8.20;;;;;;;2.84;100.00;100458.38;5039645;28;20262;-62
2022/01/23 08:28:31;;;;;;;15.43;8.00;;;;;;;2.88;99.96;100457.34;5041242;28;20693;-63
2022/01/23 08:30:58;;;;;;;13.00;7.50;;;;;;;2.92;100.00;100467.50;5039411;28;20223;-63
2022/01/23 08:33:27;;;;;;;13.47;8.13;;;;;;;2.95;100.00;100472.53;5039288;28;20206;-63
2022/01/23 08:35:57;;;;;;;14.07;8.83;;;;;;;2.98;100.00;100463.84;5036273;28;20205;-63
2022/01/23 08:38:24;;;;;;;17.23;8.40;;;;;;;3.05;100.00;100457.56;5039282;28;20579;-62
2022/01/23 08:41:49;;;;;;;15.83;11.30;;;;;;;3.08;100.00;100456.59;5040546;28;20317;-62
2022/01/23 08:43:47;;;;;;;15.53;9.57;;;;;;;3.09;100.00;100456.56;5039423;28;20210;-62
2022/01/23 08:46:14;;;;;;;14.83;10.20;;;;;;;3.08;100.00;100462.63;5036247;28;20192;-62
2022/01/23 08:48:42;;;;;;;15.60;8.77;;;;;;;3.13;100.00;100461.59;5039710;28;20207;-63
2022/01/23 08:51:10;;;;;;;17.03;8.73;;;;;;;3.16;100.00;100462.31;5040512;28;20243;-63
2022/01/23 08:53:38;;;;;;;15.80;8.90;;;;;;;3.22;99.57;100456.94;5021219;28;20243;-62
2022/01/23 08:56:05;;;;;;;16.80;9.67;;;;;;;3.28;99.67;100461.00;5038857;28;20235;-63
2022/01/23 08:58:32;;;;;;;16.90;9.17;;;;;;;3.32;99.37;100457.41;5036273;28;20189;-63
2022/01/23 09:00:59;;;;;;;15.63;11.30;;;;;;;3.40;98.86;100455.38;5030877;28;20488;-60
2022/01/23 09:03:26;;;;;;;15.33;10.47;;;;;;;3.47;98.42;100460.28;5034979;28;20727;-57
2022/01/23 09:05:54;;;;;;;15.93;11.30;;;;;;;3.57;97.90;100453.88;5034683;28;20422;-58
2022/01/23 09:08:21;;;;;;;13.37;8.07;;;;;;;3.58;96.79;100455.56;5039615;28;20188;-59
2022/01/23 09:10:58;;;;;;;16.43;9.03;;;;;;;3.51;96.00;100454.97;5040092;28;20293;-58
2022/01/23 09:13:40;;;;;;;14.17;8.47;;;;;;;3.60;95.90;100463.25;5022398;28;20207;-59
2022/01/23 09:16:07;;;;;;;15.50;8.70;;;;;;;3.57;95.80;100459.03;5039454;28;20618;-59
2022/01/23 09:18:34;;;;;;;17.13;8.03;;;;;;;3.68;95.75;100461.22;5018256;28;20242;-59
2022/01/23 09:21:03;;;;;;;28.53;18.43;;;;;;;3.73;95.91;100461.84;5038760;28;20210;-59
2022/01/23 09:23:31;;;;;;;20.70;12.17;;;;;;;3.80;95.13;100457.28;5027987;28;20245;-59
2022/01/23 09:26:01;;;;;;;16.67;10.10;;;;;;;3.90;95.38;100456.00;5029286;28;20195;-59
2022/01/23 09:28:32;;;;;;;13.73;9.00;;;;;;;4.02;94.84;100459.00;5040267;28;20688;-59
2022/01/23 09:30:59;;;;;;;12.83;9.10;;;;;;;4.11;94.75;100456.03;5036400;28;20292;-59
2022/01/23 09:33:26;;;;;;;23.57;12.63;;;;;;;4.22;94.75;100458.16;5037957;28;20273;-59
2022/01/23 09:35:52;;;;;;;45.05;24.80;;;;;;;4.27;94.37;100451.88;5032721;28;20976;-59
2022/01/23 09:38:21;;;;;;;46.03;23.50;;;;;;;4.33;94.22;100449.94;5038749;28;20246;-59
2022/01/23 09:40:51;;;;;;;50.33;29.50;;;;;;;4.38;94.06;100453.16;5037400;28;20215;-59
2022/01/23 09:43:22;;;;;;;36.83;23.17;;;;;;;4.45;93.60;100457.16;5020785;28;20212;-59
2022/01/23 09:45:51;;;;;;;20.73;12.40;;;;;;;4.50;92.83;100444.03;5039277;28;20198;-59
2022/01/23 09:48:18;;;;;;;20.93;10.97;;;;;;;4.49;91.99;100445.78;5038142;28;20191;-59
2022/01/23 09:50:47;;;;;;;22.77;12.77;;;;;;;4.47;91.83;100447.59;5037847;28;20790;-59
2022/01/23 09:53:15;;;;;;;29.37;20.80;;;;;;;4.57;91.51;100446.28;5035419;28;20675;-59
2022/01/23 09:55:46;;;;;;;19.00;10.77;;;;;;;4.68;91.79;100448.41;5038272;28;20292;-59
2022/01/23 09:58:14;;;;;;;18.00;10.93;;;;;;;4.77;91.73;100444.56;5034294;28;20187;-59
2022/01/23 10:00:41;;;;;;;21.57;13.67;;;;;;;4.91;90.83;100449.09;5037973;28;20236;-59
2022/01/23 10:03:08;;;;;;;24.20;16.47;;;;;;;4.96;88.22;100441.16;5037935;28;20186;-59
2022/01/23 10:05:35;;;;;;;28.73;18.98;;;;;;;4.93;86.98;100442.13;5034086;28;20425;-59
2022/01/23 10:08:02;;;;;;;29.23;18.43;;;;;;;4.94;87.22;100445.56;5038449;28;20183;-59
2022/01/23 10:10:32;;;;;;;26.17;16.50;;;;;;;4.80;86.16;100452.19;5039130;28;20294;-59
2022/01/23 10:13:01;;;;;;;27.30;16.63;;;;;;;4.70;87.27;100453.50;5038129;28;20188;-58
2022/01/23 10:15:31;;;;;;;26.20;16.57;;;;;;;4.69;87.62;100444.91;5036955;28;20227;-58
2022/01/23 10:17:59;;;;;;;35.17;19.27;;;;;;;4.70;87.71;100443.16;5036318;28;20188;-58
2022/01/23 10:20:26;;;;;;;28.70;19.07;;;;;;;4.82;88.16;100439.16;5037758;28;20211;-58
2022/01/23 10:22:55;;;;;;;26.37;17.10;;;;;;;4.94;88.13;100442.97;5039478;28;20194;-58
2022/01/23 10:25:25;;;;;;;26.13;17.13;;;;;;;5.00;88.01;100440.94;5034209;28;20192;-59
2022/01/23 10:28:01;;;;;;;24.87;15.70;;;;;;;5.10;87.32;100453.44;5021552;28;20194;-59
2022/01/23 10:30:32;;;;;;;22.97;14.57;;;;;;;5.10;85.55;100445.69;5038841;28;20231;-59
2022/01/23 10:33:06;;;;;;;34.77;20.87;;;;;;;5.15;85.53;100446.31;5038166;28;20184;-59
2022/01/23 10:35:33;;;;;;;30.40;19.87;;;;;;;5.20;85.54;100452.13;5036913;28;20679;-59
2022/01/23 10:38:12;;;;;;;31.67;20.93;;;;;;;5.29;85.28;100441.34;5037742;28;20183;-59
2022/01/23 10:40:48;;;;;;;24.87;15.53;;;;;;;5.29;83.35;100449.09;5036021;28;20212;-59
2022/01/23 10:48:47;;;;;;;28.23;16.97;;;;;;;5.17;84.49;100444.50;5037882;28;20219;-60
2022/01/23 10:51:24;;;;;;;28.67;17.50;;;;;;;5.10;84.38;100446.53;5034176;28;20220;-60
2022/01/23 10:54:07;;;;;;;28.23;16.27;;;;;;;5.15;83.36;100441.13;5016335;28;20416;-58
2022/01/23 10:56:37;;;;;;;30.30;17.07;;;;;;;5.29;85.07;100441.34;5032790;28;20231;-58
2022/01/23 10:59:06;;;;;;;29.00;17.40;;;;;;;5.25;83.16;100442.41;5030772;28;20191;-58
2022/01/23 11:01:35;;;;;;;33.33;18.83;;;;;;;5.09;83.67;100436.25;5032510;28;20220;-59
2022/01/23 11:04:10;;;;;;;32.23;19.17;;;;;;;5.11;84.41;100435.28;5029220;28;20194;-59
2022/01/23 11:06:55;;;;;;;34.40;19.03;;;;;;;5.00;83.84;100427.16;5033061;28;20187;-59
2022/01/23 11:09:27;;;;;;;30.20;18.50;;;;;;;5.16;83.80;100428.13;5032979;28;20199;-59
2022/01/23 11:12:01;;;;;;;43.53;23.10;;;;;;;5.39;84.17;100431.38;5029655;28;20196;-60
2022/01/23 11:17:24;;;;;;;32.43;18.27;;;;;;;5.53;85.25;100419.50;5012960;28;20238;-60
2022/01/23 11:19:53;;;;;;;33.90;19.13;;;;;;;5.62;83.31;100419.06;4995382;28;20220;-59
2022/01/23 11:22:22;;;;;;;26.93;16.50;;;;;;;5.65;81.73;100415.50;5012939;28;20192;-59
2022/01/23 11:24:50;;;;;;;31.33;18.53;;;;;;;5.68;82.43;100417.94;5014960;28;20210;-59
2022/01/23 11:27:19;;;;;;;29.27;17.03;;;;;;;5.81;81.40;100411.25;5028113;28;20192;-58
2022/01/23 11:29:57;;;;;;;30.73;17.50;;;;;;;5.70;82.53;100406.59;5029614;28;20235;-58
2022/01/23 11:32:29;;;;;;;29.47;17.13;;;;;;;5.78;82.20;100411.41;5032600;28;20694;-58
2022/01/23 11:35:04;;;;;;;26.90;16.37;;;;;;;5.87;82.72;100404.91;5032248;28;20275;-59
2022/01/23 11:37:31;;;;;;;27.63;17.00;;;;;;;5.81;82.23;100408.66;5032539;28;20222;-58
2022/01/23 11:40:07;;;;;;;26.53;15.60;;;;;;;5.94;81.47;100410.63;5032278;28;20212;-59
2022/01/23 11:51:19;;;;;;;25.13;14.00;;;;;;;5.87;79.99;100403.16;5031694;28;20291;-59
2022/01/23 11:53:53;;;;;;;23.17;13.73;;;;;;;5.84;78.38;100392.94;5031613;28;20184;-59
2022/01/23 11:56:37;;;;;;;24.03;14.50;;;;;;;5.78;79.39;100398.44;5032142;28;20278;-59
2022/01/23 11:59:25;;;;;;;27.50;15.23;;;;;;;5.75;81.35;100394.25;4994500;28;20239;-59
2022/01/23 12:02:31;;;;;;;28.33;16.60;;;;;;;5.85;83.20;100398.97;5012067;28;20220;-58
2022/01/23 12:05:33;;;;;;;30.67;17.80;;;;;;;5.95;82.02;100399.34;5017538;28;20195;-58
2022/01/23 12:08:32;;;;;;;28.57;16.97;;;;;;;5.84;81.59;100397.28;5033906;28;20206;-59
2022/01/23 12:11:42;;;;;;;29.90;16.93;;;;;;;5.79;81.43;100391.50;5031339;28;20207;-59
2022/01/23 12:17:39;;;;;;;29.47;17.40;;;;;;;5.68;82.78;100377.31;5041699;28;20687;-59
2022/01/23 12:20:07;;;;;;;30.90;17.37;;;;;;;5.81;83.58;100377.56;5037889;28;20217;-58
2022/01/23 12:22:40;;;;;;;29.27;17.47;;;;;;;5.87;83.91;100364.28;5040979;28;20197;-59
2022/01/23 12:25:13;;;;;;;31.83;18.03;;;;;;;5.92;83.85;100369.25;5019747;28;20234;-58
2022/01/23 12:27:41;;;;;;;31.43;17.90;;;;;;;6.00;84.38;100355.88;5041293;28;20188;-59
2022/01/23 12:30:33;;;;;;;28.20;16.40;;;;;;;6.00;84.36;100348.97;5032472;28;20215;-58
2022/01/23 12:33:29;;;;;;;25.27;15.97;;;;;;;6.03;83.68;100353.16;5031441;28;20192;-60
2022/01/23 12:36:00;;;;;;;28.80;15.93;;;;;;;6.05;83.84;100353.91;5033442;28;20200;-59
2022/01/23 12:38:35;;;;;;;29.83;17.43;;;;;;;6.10;83.63;100349.34;5040269;28;20238;-59
2022/01/23 12:41:17;;;;;;;27.87;16.60;;;;;;;6.22;83.70;100352.22;5021728;28;20231;-59
2022/01/23 12:43:44;;;;;;;34.50;17.23;;;;;;;6.23;81.00;100344.38;5039472;28;20188;-59
2022/01/23 12:46:16;;;;;;;28.80;17.67;;;;;;;6.11;81.44;100343.22;5039814;28;20203;-59
2022/01/23 12:48:48;;;;;;;33.83;19.17;;;;;;;6.23;81.48;100343.50;5040596;28;20211;-59
2022/01/23 12:51:42;;;;;;;24.67;15.00;;;;;;;6.18;80.00;100339.41;5036884;28;20656;-59
2022/01/23 12:54:30;;;;;;;24.93;14.60;;;;;;;6.17;80.22;100342.91;5040621;28;20262;-58
2022/01/23 12:57:05;;;;;;;23.93;14.27;;;;;;;6.07;79.93;100335.69;5031768;28;20212;-58
2022/01/23 12:59:35;;;;;;;30.63;15.10;;;;;;;6.05;81.81;100334.03;5029119;28;20231;-59
2022/01/23 13:02:07;;;;;;;23.13;14.33;;;;;;;6.16;81.89;100330.03;5036502;28;20210;-59
2022/01/23 13:04:39;;;;;;;26.83;15.87;;;;;;;6.18;82.28;100330.81;5032873;28;20195;-58
2022/01/23 13:07:15;;;;;;;27.87;15.67;;;;;;;6.17;82.07;100336.91;5040634;28;20188;-58
2022/01/23 13:09:50;;;;;;;26.83;14.57;;;;;;;6.21;82.67;100328.03;5038855;28;20215;-59
2022/01/23 13:12:31;;;;;;;24.00;14.37;;;;;;;6.17;82.23;100322.16;5037151;28;20195;-59
2022/01/23 13:15:15;;;;;;;22.07;12.90;;;;;;;6.25;80.67;100318.34;5037266;28;20211;-60
2022/01/23 13:17:53;;;;;;;23.07;12.90;;;;;;;6.16;80.18;100315.31;5038203;28;20208;-60
2022/01/23 13:31:42;;;;;;;17.40;10.17;;;;;;;6.27;80.23;100312.16;5035898;28;20216;-58
2022/01/23 13:34:26;;;;;;;20.90;11.00;;;;;;;6.28;80.02;100310.38;5038659;28;20195;-59
2022/01/23 13:36:59;;;;;;;14.83;9.77;;;;;;;6.24;79.53;100312.31;5022749;28;20218;-59
2022/01/23 13:39:28;;;;;;;10.33;6.33;;;;;;;6.16;74.17;100314.47;5040612;28;20195;-59
2022/01/23 13:42:04;;;;;;;9.03;6.00;;;;;;;6.08;72.84;100306.28;5035852;28;20271;-58
2022/01/23 13:52:56;;;;;;;7.20;4.10;;;;;;;5.71;68.88;100307.22;5050405;28;20183;-59
2022/01/23 13:58:35;;;;;;;7.00;4.53;;;;;;;5.81;69.92;100304.16;5026100;28;20239;-61
2022/01/23 14:01:17;;;;;;;7.37;4.17;;;;;;;5.82;68.77;100306.69;5027792;28;20262;-61
2022/01/23 14:03:44;;;;;;;7.43;5.20;;;;;;;5.80;68.90;100307.66;5027252;28;20204;-59
2022/01/23 14:06:12;;;;;;;7.63;5.03;;;;;;;5.92;76.29;100301.84;5026281;28;20188;-59
2022/01/23 14:08:39;;;;;;;6.17;4.10;;;;;;;5.91;70.68;100308.78;5027528;28;20552;-61
2022/01/23 14:11:05;;;;;;;7.70;5.00;;;;;;;5.87;78.68;100301.25;5027048;28;20218;-53
2022/01/23 14:13:34;;;;;;;8.00;5.17;;;;;;;5.91;75.77;100303.59;5027073;28;20206;-54
2022/01/23 14:16:01;;;;;;;7.97;5.30;;;;;;;5.83;72.41;100302.31;5026038;28;20184;-55
2022/01/23 14:18:29;;;;;;;7.27;5.30;;;;;;;5.82;71.92;100305.81;5029969;28;20194;-57
2022/01/23 14:20:58;;;;;;;6.33;4.47;;;;;;;5.79;70.57;100311.16;5029347;28;20219;-63
2022/01/23 14:23:26;;;;;;;7.30;4.77;;;;;;;5.72;70.15;100302.88;5029761;28;20180;-61
2022/01/23 14:25:56;;;;;;;7.97;4.77;;;;;;;5.54;68.97;100304.63;5011776;28;20199;-63